Time;durP1;ratioP1;P1;durP2;ratioP2;P2;SDS_P1;SDS_P2;PMS_P1;PMS_P2;Temp;Humidity;BMP_temperature;BMP_pressure;BME280_temperature;BME280_humidity;BME280_pressure;Samples;Min_cycle;Max_cycle;Signal;HPM_P1;HPM_P2
2022/03/23 00:01:56;;;;;;;11.60;7.82;;;;;;;;;;5057873;28;20024;-73
2022/03/23 00:04:22;;;;;;;12.93;8.10;;;;;;;;;;5059772;28;20035;-74
2022/03/23 00:06:48;;;;;;;11.40;7.43;;;;;;;;;;5058123;28;20061;-74
2022/03/23 00:09:14;;;;;;;13.18;7.38;;;;;;;;;;5059598;28;20040;-73
2022/03/23 00:11:41;;;;;;;9.15;7.10;;;;;;;;;;5058235;28;20037;-75
2022/03/23 00:14:09;;;;;;;11.95;7.93;;;;;;;;;;5058559;28;20040;-74
2022/03/23 00:16:36;;;;;;;13.13;9.18;;;;;;;;;;5058868;28;20031;-74
2022/03/23 00:19:02;;;;;;;13.10;8.05;;;;;;;;;;5059150;28;20024;-75
2022/03/23 00:21:28;;;;;;;12.18;7.60;;;;;;;;;;5059776;28;20024;-75
2022/03/23 00:23:54;;;;;;;17.05;8.43;;;;;;;;;;5057768;28;20413;-74
2022/03/23 00:26:20;;;;;;;14.88;8.35;;;;;;;;;;5059547;28;20039;-75
2022/03/23 00:28:48;;;;;;;14.63;7.57;;;;;;;;;;5059682;28;20103;-75
2022/03/23 00:31:14;;;;;;;12.40;7.82;;;;;;;;;;5063509;28;20029;-75
2022/03/23 00:33:40;;;;;;;16.23;9.60;;;;;;;;;;5062033;28;20054;-76
2022/03/23 00:36:09;;;;;;;11.18;6.72;;;;;;;;;;5055541;28;20090;-75
2022/03/23 00:38:35;;;;;;;8.05;6.55;;;;;;;;;;5056440;28;20104;-75
2022/03/23 00:41:03;;;;;;;9.43;6.35;;;;;;;;;;5061375;28;20696;-74
2022/03/23 00:43:29;;;;;;;12.73;6.55;;;;;;;;;;5059246;28;20024;-73
2022/03/23 00:45:55;;;;;;;14.68;7.28;;;;;;;;;;5060798;28;20060;-75
2022/03/23 00:48:21;;;;;;;12.98;8.05;;;;;;;;;;5059838;28;20051;-74
2022/03/23 00:50:47;;;;;;;11.98;7.32;;;;;;;;;;5060970;28;20044;-75
2022/03/23 00:53:13;;;;;;;12.38;7.18;;;;;;;;;;5060165;28;20035;-75
2022/03/23 00:55:43;;;;;;;11.20;7.75;;;;;;;;;;5059288;28;20025;-75
2022/03/23 00:58:09;;;;;;;10.32;6.50;;;;;;;;;;5060683;28;20025;-74
2022/03/23 01:00:35;;;;;;;11.85;7.25;;;;;;;;;;5058805;28;20030;-74
2022/03/23 01:03:02;;;;;;;12.50;7.18;;;;;;;;;;5057585;28;20029;-74
2022/03/23 01:05:28;;;;;;;10.60;6.70;;;;;;;;;;5059206;28;20053;-76
2022/03/23 01:07:54;;;;;;;10.70;6.68;;;;;;;;;;5058562;28;20032;-76
2022/03/23 01:10:21;;;;;;;12.85;6.65;;;;;;;;;;5059684;28;20037;-75
2022/03/23 01:12:48;;;;;;;8.90;6.20;;;;;;;;;;5060776;28;20409;-75
2022/03/23 01:15:19;;;;;;;10.20;7.32;;;;;;;;;;5061808;28;20013;-75
2022/03/23 01:17:45;;;;;;;9.15;6.63;;;;;;;;;;5063053;28;20021;-74
2022/03/23 01:20:13;;;;;;;10.85;6.75;;;;;;;;;;5062724;28;20034;-75
2022/03/23 01:22:40;;;;;;;11.18;7.15;;;;;;;;;;5063142;28;20036;-75
2022/03/23 01:25:10;;;;;;;11.93;8.15;;;;;;;;;;5062285;28;20473;-75
2022/03/23 01:27:40;;;;;;;10.93;8.55;;;;;;;;;;5061134;28;20028;-75
2022/03/23 01:30:08;;;;;;;14.43;9.15;;;;;;;;;;5062309;28;20029;-74
2022/03/23 01:32:34;;;;;;;13.10;7.40;;;;;;;;;;5061846;28;20052;-75
2022/03/23 01:35:00;;;;;;;11.70;7.90;;;;;;;;;;5064157;28;20406;-75
2022/03/23 01:37:26;;;;;;;11.15;7.57;;;;;;;;;;5061506;28;20029;-73
2022/03/23 01:39:53;;;;;;;11.43;7.93;;;;;;;;;;5078353;28;20036;-73
2022/03/23 01:42:19;;;;;;;10.77;7.70;;;;;;;;;;5062825;28;20110;-74
2022/03/23 01:44:45;;;;;;;15.25;8.23;;;;;;;;;;5063143;28;20029;-75
2022/03/23 01:47:13;;;;;;;14.32;8.80;;;;;;;;;;5066919;28;20483;-73
2022/03/23 01:49:41;;;;;;;11.45;7.53;;;;;;;;;;5065483;28;20025;-75
2022/03/23 01:52:08;;;;;;;17.83;7.65;;;;;;;;;;5064859;28;20024;-73
2022/03/23 01:54:34;;;;;;;9.10;7.10;;;;;;;;;;5059718;28;20033;-75
2022/03/23 01:57:01;;;;;;;8.90;7.00;;;;;;;;;;5064392;28;20025;-76
2022/03/23 01:59:27;;;;;;;12.82;6.78;;;;;;;;;;5064823;28;20111;-74
2022/03/23 02:01:54;;;;;;;7.95;6.68;;;;;;;;;;5065204;28;20100;-75
2022/03/23 02:04:20;;;;;;;12.88;7.47;;;;;;;;;;5064834;28;20032;-76
2022/03/23 02:06:48;;;;;;;13.40;8.43;;;;;;;;;;5068711;28;20024;-73
2022/03/23 02:09:14;;;;;;;10.02;6.88;;;;;;;;;;5085360;28;20035;-76
2022/03/23 02:11:41;;;;;;;9.35;6.57;;;;;;;;;;5067284;28;20032;-74
2022/03/23 02:14:08;;;;;;;9.43;6.63;;;;;;;;;;5060028;28;20041;-74
2022/03/23 02:16:40;;;;;;;11.07;7.00;;;;;;;;;;5058682;28;20559;-75
2022/03/23 02:19:06;;;;;;;10.85;6.82;;;;;;;;;;5061445;28;20037;-74
2022/03/23 02:21:32;;;;;;;10.88;7.65;;;;;;;;;;5061393;28;20035;-73
2022/03/23 02:23:58;;;;;;;10.90;6.32;;;;;;;;;;5061190;28;20028;-74
2022/03/23 02:26:26;;;;;;;11.80;6.60;;;;;;;;;;5064568;28;20067;-75
2022/03/23 02:28:53;;;;;;;12.23;7.03;;;;;;;;;;5063508;28;20038;-74
2022/03/23 02:31:19;;;;;;;12.13;7.00;;;;;;;;;;5064445;28;20040;-75
2022/03/23 02:33:45;;;;;;;10.65;6.68;;;;;;;;;;5060712;28;20028;-73
2022/03/23 02:36:11;;;;;;;13.30;7.32;;;;;;;;;;5061757;28;20108;-75
2022/03/23 02:38:37;;;;;;;11.13;6.80;;;;;;;;;;5065224;28;20047;-75
2022/03/23 02:41:04;;;;;;;10.82;7.10;;;;;;;;;;5062427;28;20080;-74
2022/03/23 02:43:30;;;;;;;10.23;6.97;;;;;;;;;;5061652;28;20028;-74
2022/03/23 02:45:56;;;;;;;9.27;6.55;;;;;;;;;;5060890;28;20038;-74
2022/03/23 02:48:22;;;;;;;9.80;6.38;;;;;;;;;;5061235;28;20036;-75
2022/03/23 02:50:48;;;;;;;11.25;6.65;;;;;;;;;;5063228;28;20059;-75
2022/03/23 03:01:54;;;;;;;10.80;6.60;;;;;;;;;;5062820;28;20035;-73
2022/03/23 03:04:20;;;;;;;8.95;5.93;;;;;;;;;;5061166;28;20742;-73
2022/03/23 03:06:47;;;;;;;10.35;6.75;;;;;;;;;;5063524;28;20024;-73
2022/03/23 03:09:13;;;;;;;9.80;6.05;;;;;;;;;;5063471;28;20032;-75
2022/03/23 03:11:39;;;;;;;12.27;7.10;;;;;;;;;;5075767;28;22139;-73
2022/03/23 03:14:05;;;;;;;11.48;6.82;;;;;;;;;;5059606;28;20088;-75
2022/03/23 03:16:31;;;;;;;12.32;6.07;;;;;;;;;;5059425;28;20035;-75
2022/03/23 03:18:57;;;;;;;11.65;7.97;;;;;;;;;;5062266;28;20726;-75
2022/03/23 03:21:23;;;;;;;9.88;6.95;;;;;;;;;;5075723;28;20025;-74
2022/03/23 03:23:50;;;;;;;9.57;6.57;;;;;;;;;;5061315;28;20032;-73
2022/03/23 03:26:17;;;;;;;8.65;6.88;;;;;;;;;;5064724;28;20029;-74
2022/03/23 03:28:43;;;;;;;13.05;6.93;;;;;;;;;;5062080;28;20028;-76
2022/03/23 03:31:10;;;;;;;9.20;6.28;;;;;;;;;;5061107;28;20039;-74
2022/03/23 03:33:37;;;;;;;11.65;6.68;;;;;;;;;;5058810;28;20115;-74
2022/03/23 03:36:03;;;;;;;11.73;6.35;;;;;;;;;;5059357;28;20157;-73
2022/03/23 03:38:30;;;;;;;10.88;6.88;;;;;;;;;;5060055;28;20035;-72
2022/03/23 03:40:57;;;;;;;11.30;6.72;;;;;;;;;;5055811;28;20056;-72
2022/03/23 03:43:24;;;;;;;11.05;7.38;;;;;;;;;;5058018;28;20409;-72
2022/03/23 03:45:50;;;;;;;9.85;6.65;;;;;;;;;;5056026;28;20493;-74
2022/03/23 03:48:17;;;;;;;11.23;6.55;;;;;;;;;;5061463;28;20121;-72
2022/03/23 03:50:43;;;;;;;9.98;6.75;;;;;;;;;;5057374;28;20035;-73
2022/03/23 03:53:10;;;;;;;9.00;6.65;;;;;;;;;;5057652;28;20107;-72
2022/03/23 03:55:36;;;;;;;8.95;6.00;;;;;;;;;;5057731;28;20036;-73
2022/03/23 03:58:03;;;;;;;9.27;7.22;;;;;;;;;;5058540;28;20032;-74
2022/03/23 04:00:30;;;;;;;12.70;6.72;;;;;;;;;;5057617;28;20024;-71
2022/03/23 04:02:56;;;;;;;9.68;6.68;;;;;;;;;;5054402;28;20024;-73
2022/03/23 04:05:22;;;;;;;10.45;6.50;;;;;;;;;;5059352;28;20043;-73
2022/03/23 04:07:48;;;;;;;9.25;6.78;;;;;;;;;;5057406;28;20107;-73
2022/03/23 04:10:15;;;;;;;12.13;6.75;;;;;;;;;;5058756;28;20025;-73
2022/03/23 04:12:41;;;;;;;13.10;7.00;;;;;;;;;;5055987;28;20507;-73
2022/03/23 04:15:08;;;;;;;14.70;7.25;;;;;;;;;;5061646;28;20091;-73
2022/03/23 04:17:34;;;;;;;12.25;7.53;;;;;;;;;;5059502;28;20104;-73
2022/03/23 04:20:00;;;;;;;10.45;6.68;;;;;;;;;;5058300;28;20024;-72
2022/03/23 04:22:26;;;;;;;9.73;6.28;;;;;;;;;;5058363;28;20139;-72
2022/03/23 04:24:52;;;;;;;10.82;7.18;;;;;;;;;;5058460;28;20029;-73
2022/03/23 04:27:18;;;;;;;10.35;6.47;;;;;;;;;;5056174;28;20202;-72
2022/03/23 04:29:45;;;;;;;9.80;6.25;;;;;;;;;;5055838;28;20095;-73
2022/03/23 04:32:11;;;;;;;9.90;7.28;;;;;;;;;;5063825;28;20566;-73
2022/03/23 04:34:37;;;;;;;11.65;7.50;;;;;;;;;;5061858;28;20037;-74
2022/03/23 04:37:03;;;;;;;10.27;7.07;;;;;;;;;;5060017;28;20032;-73
2022/03/23 04:39:29;;;;;;;10.95;7.03;;;;;;;;;;5058209;28;20025;-73
2022/03/23 04:41:55;;;;;;;12.07;6.63;;;;;;;;;;5058183;28;20147;-74
2022/03/23 04:44:21;;;;;;;11.50;6.72;;;;;;;;;;5052467;28;20090;-74
2022/03/23 04:46:47;;;;;;;10.68;6.78;;;;;;;;;;5058468;28;20029;-73
2022/03/23 04:49:14;;;;;;;10.70;6.78;;;;;;;;;;5059752;28;20033;-73
2022/03/23 04:51:40;;;;;;;10.13;6.78;;;;;;;;;;5060857;28;20612;-74
2022/03/23 04:54:06;;;;;;;10.48;7.20;;;;;;;;;;5062136;28;20028;-72
2022/03/23 04:56:33;;;;;;;10.68;6.90;;;;;;;;;;5061837;28;20490;-73
2022/03/23 04:58:59;;;;;;;13.18;7.38;;;;;;;;;;5059694;28;20077;-73
2022/03/23 05:01:26;;;;;;;10.05;7.05;;;;;;;;;;5058558;28;20386;-73
2022/03/23 05:03:52;;;;;;;13.00;6.97;;;;;;;;;;5059830;28;20115;-72
2022/03/23 05:06:19;;;;;;;12.68;6.32;;;;;;;;;;5062102;28;20404;-72
2022/03/23 05:08:45;;;;;;;12.15;7.50;;;;;;;;;;5060065;28;20079;-73
2022/03/23 05:11:11;;;;;;;10.20;7.18;;;;;;;;;;5063551;28;20056;-73
2022/03/23 05:13:37;;;;;;;10.18;6.43;;;;;;;;;;5060664;28;20068;-73
2022/03/23 05:16:04;;;;;;;11.63;7.60;;;;;;;;;;5062478;28;20102;-73
2022/03/23 05:18:30;;;;;;;13.75;7.07;;;;;;;;;;5061648;28;20020;-73
2022/03/23 05:20:56;;;;;;;11.35;7.38;;;;;;;;;;5062224;28;20108;-73
2022/03/23 05:23:22;;;;;;;10.90;7.53;;;;;;;;;;5062105;28;20033;-72
2022/03/23 05:25:48;;;;;;;11.77;8.13;;;;;;;;;;5065097;28;20036;-73
2022/03/23 05:28:14;;;;;;;10.60;6.97;;;;;;;;;;5076619;28;20925;-73
2022/03/23 05:30:40;;;;;;;15.25;7.25;;;;;;;;;;5062561;28;20028;-72
2022/03/23 05:33:06;;;;;;;11.55;7.70;;;;;;;;;;5061885;28;20032;-73
2022/03/23 05:35:33;;;;;;;14.75;7.85;;;;;;;;;;5060341;28;20033;-71
2022/03/23 05:37:59;;;;;;;13.30;8.05;;;;;;;;;;5062901;28;20081;-74
2022/03/23 05:40:25;;;;;;;10.40;7.32;;;;;;;;;;5061689;28;20039;-75
2022/03/23 05:42:51;;;;;;;8.73;6.80;;;;;;;;;;5061898;28;20111;-72
2022/03/23 05:45:17;;;;;;;13.27;7.88;;;;;;;;;;5062227;28;20025;-73
2022/03/23 05:47:43;;;;;;;10.98;7.32;;;;;;;;;;5060748;28;20493;-74
2022/03/23 05:50:11;;;;;;;15.43;8.65;;;;;;;;;;5058466;28;20028;-73
2022/03/23 05:52:40;;;;;;;14.07;7.80;;;;;;;;;;5060321;28;20347;-73
2022/03/23 05:55:07;;;;;;;11.57;7.78;;;;;;;;;;5060693;28;20454;-73
2022/03/23 05:57:33;;;;;;;11.50;7.82;;;;;;;;;;5058784;28;20382;-73
2022/03/23 06:00:00;;;;;;;13.10;7.90;;;;;;;;;;5059364;28;20035;-73
2022/03/23 06:02:26;;;;;;;12.45;8.40;;;;;;;;;;5059966;28;20028;-74
2022/03/23 06:04:52;;;;;;;10.25;6.90;;;;;;;;;;5061160;28;20020;-72
2022/03/23 06:07:18;;;;;;;12.20;7.25;;;;;;;;;;5061574;28;20025;-72
2022/03/23 06:09:45;;;;;;;14.38;7.35;;;;;;;;;;5074522;28;20476;-74
2022/03/23 06:12:11;;;;;;;17.80;8.45;;;;;;;;;;5058413;28;20041;-72
2022/03/23 06:14:38;;;;;;;11.20;8.80;;;;;;;;;;5060830;28;20037;-73
2022/03/23 06:17:06;;;;;;;14.85;9.00;;;;;;;;;;5060922;28;20028;-73
2022/03/23 06:19:32;;;;;;;12.00;7.80;;;;;;;;;;5059929;28;20019;-73
2022/03/23 06:21:58;;;;;;;11.40;7.95;;;;;;;;;;5063296;28;20103;-74
2022/03/23 06:24:24;;;;;;;14.63;8.73;;;;;;;;;;5062181;28;20094;-73
2022/03/23 06:26:50;;;;;;;12.75;9.05;;;;;;;;;;5064488;28;20033;-73
2022/03/23 06:29:16;;;;;;;12.00;8.10;;;;;;;;;;5059560;28;20123;-72
2022/03/23 06:31:42;;;;;;;9.80;7.63;;;;;;;;;;5057346;28;20115;-73
2022/03/23 06:34:08;;;;;;;13.70;9.02;;;;;;;;;;5061341;28;20071;-73
2022/03/23 06:36:38;;;;;;;11.98;8.23;;;;;;;;;;5057734;28;20087;-73
2022/03/23 06:39:05;;;;;;;12.55;8.45;;;;;;;;;;5059040;28;20025;-72
2022/03/23 06:41:31;;;;;;;12.32;8.55;;;;;;;;;;5059618;28;20051;-72
2022/03/23 06:43:57;;;;;;;11.27;8.00;;;;;;;;;;5061196;28;20085;-73
2022/03/23 06:46:23;;;;;;;14.77;8.65;;;;;;;;;;5059298;28;20090;-73
2022/03/23 06:48:49;;;;;;;13.98;7.93;;;;;;;;;;5060461;28;20028;-72
2022/03/23 06:51:16;;;;;;;15.88;8.82;;;;;;;;;;5058444;28;20052;-74
2022/03/23 06:53:42;;;;;;;12.48;7.78;;;;;;;;;;5058180;28;20129;-71
2022/03/23 06:56:09;;;;;;;14.00;7.93;;;;;;;;;;5060273;28;20028;-73
2022/03/23 06:58:35;;;;;;;12.40;8.63;;;;;;;;;;5058925;28;20024;-72
2022/03/23 07:01:01;;;;;;;15.27;8.63;;;;;;;;;;5062787;28;20727;-72
2022/03/23 07:03:28;;;;;;;11.93;8.75;;;;;;;;;;5070966;28;20082;-72
2022/03/23 07:05:54;;;;;;;12.10;8.82;;;;;;;;;;5068439;28;20025;-73
2022/03/23 07:11:05;;;;;;;11.15;7.82;;;;;;;;;;5065615;28;20274;-73
2022/03/23 07:13:32;;;;;;;17.02;8.38;;;;;;;;;;5067647;28;20120;-73
2022/03/23 07:15:58;;;;;;;18.20;8.45;;;;;;;;;;5064991;28;20020;-72
2022/03/23 07:18:24;;;;;;;16.08;8.43;;;;;;;;;;5066251;28;20150;-72
2022/03/23 07:20:50;;;;;;;13.90;8.10;;;;;;;;;;5064559;28;20020;-72
2022/03/23 07:23:16;;;;;;;11.57;8.70;;;;;;;;;;5067216;28;20042;-74
2022/03/23 07:25:42;;;;;;;15.52;8.82;;;;;;;;;;5066893;28;20456;-72
2022/03/23 07:28:09;;;;;;;16.02;9.20;;;;;;;;;;5066638;28;20054;-72
2022/03/23 07:30:35;;;;;;;17.83;9.05;;;;;;;;;;5066791;28;20671;-72
2022/03/23 07:33:01;;;;;;;15.07;9.85;;;;;;;;;;5062634;28;20108;-74
2022/03/23 07:35:28;;;;;;;15.20;9.35;;;;;;;;;;5067452;28;20385;-73
2022/03/23 07:37:54;;;;;;;17.15;9.23;;;;;;;;;;5068107;28;20025;-73
2022/03/23 07:40:20;;;;;;;13.80;8.98;;;;;;;;;;5069505;28;20090;-73
2022/03/23 07:42:46;;;;;;;14.10;8.80;;;;;;;;;;5078126;28;20170;-73
2022/03/23 07:45:14;;;;;;;13.77;9.23;;;;;;;;;;5067298;28;20040;-73
2022/03/23 07:47:40;;;;;;;20.05;9.48;;;;;;;;;;5063042;28;20024;-72
2022/03/23 07:50:07;;;;;;;13.80;8.45;;;;;;;;;;5066711;28;20410;-73
2022/03/23 07:52:33;;;;;;;12.48;8.98;;;;;;;;;;5064578;28;20024;-73
2022/03/23 07:55:02;;;;;;;13.40;9.20;;;;;;;;;;5067625;28;20039;-74
2022/03/23 07:57:28;;;;;;;13.20;8.65;;;;;;;;;;5073214;28;20103;-73
2022/03/23 07:59:58;;;;;;;14.07;9.27;;;;;;;;;;5068498;28;20025;-73
2022/03/23 08:02:24;;;;;;;13.90;8.63;;;;;;;;;;5065038;28;20024;-72
2022/03/23 08:04:51;;;;;;;15.02;9.32;;;;;;;;;;5064395;28;20024;-72
2022/03/23 08:07:17;;;;;;;17.48;9.95;;;;;;;;;;5068273;28;20099;-73
2022/03/23 08:09:43;;;;;;;16.33;10.27;;;;;;;;;;5065989;28;20050;-74
2022/03/23 08:12:09;;;;;;;13.52;9.82;;;;;;;;;;5067427;28;20028;-72
2022/03/23 08:14:35;;;;;;;17.27;10.43;;;;;;;;;;5068678;28;20416;-74
2022/03/23 08:17:02;;;;;;;12.38;9.70;;;;;;;;;;5067556;28;20056;-72
2022/03/23 08:19:28;;;;;;;14.35;10.50;;;;;;;;;;5067512;28;20082;-73
2022/03/23 08:21:54;;;;;;;17.13;9.52;;;;;;;;;;5066680;28;20111;-73
2022/03/23 08:24:20;;;;;;;15.65;10.15;;;;;;;;;;5056863;28;20056;-73
2022/03/23 08:26:46;;;;;;;15.85;10.75;;;;;;;;;;5070642;28;20035;-72
2022/03/23 08:29:12;;;;;;;18.17;10.02;;;;;;;;;;5064042;28;20192;-72
2022/03/23 08:31:39;;;;;;;15.93;11.10;;;;;;;;;;5070236;28;20028;-75
2022/03/23 08:34:05;;;;;;;16.00;11.88;;;;;;;;;;5055421;28;20082;-74
2022/03/23 08:36:32;;;;;;;16.15;11.32;;;;;;;;;;5065630;28;20477;-70
2022/03/23 08:38:59;;;;;;;18.98;10.48;;;;;;;;;;5097299;28;20509;-74
2022/03/23 08:41:25;;;;;;;16.75;11.00;;;;;;;;;;5068840;28;20024;-72
2022/03/23 08:43:51;;;;;;;16.88;10.65;;;;;;;;;;5067441;28;20032;-73
2022/03/23 08:46:17;;;;;;;18.27;12.18;;;;;;;;;;5063700;28;20032;-73
2022/03/23 08:48:43;;;;;;;17.23;10.90;;;;;;;;;;5071668;28;20035;-73
2022/03/23 08:51:11;;;;;;;25.95;11.68;;;;;;;;;;5068904;28;20111;-72
2022/03/23 08:53:38;;;;;;;21.00;10.48;;;;;;;;;;5066784;28;20035;-75
2022/03/23 08:56:05;;;;;;;20.60;10.73;;;;;;;;;;5065596;28;20024;-74
2022/03/23 08:58:31;;;;;;;20.30;11.25;;;;;;;;;;5065713;28;20032;-73
2022/03/23 09:00:57;;;;;;;20.17;11.20;;;;;;;;;;5068052;28;20200;-74
2022/03/23 09:03:24;;;;;;;19.20;10.80;;;;;;;;;;5072719;28;20111;-75
2022/03/23 09:05:50;;;;;;;17.95;11.65;;;;;;;;;;5065367;28;20032;-72
2022/03/23 09:08:16;;;;;;;20.98;12.15;;;;;;;;;;5059017;28;20033;-74
2022/03/23 09:10:42;;;;;;;20.60;11.00;;;;;;;;;;5055243;28;20973;-73
2022/03/23 09:13:08;;;;;;;19.27;11.70;;;;;;;;;;5062661;28;20128;-72
2022/03/23 09:15:35;;;;;;;19.90;12.18;;;;;;;;;;5070650;28;20078;-73
2022/03/23 09:18:02;;;;;;;20.55;11.05;;;;;;;;;;5060488;28;20028;-74
2022/03/23 09:20:28;;;;;;;21.42;11.80;;;;;;;;;;5060031;28;20796;-73
2022/03/23 09:22:55;;;;;;;16.08;10.38;;;;;;;;;;5056561;28;20069;-73
2022/03/23 09:25:22;;;;;;;22.17;11.20;;;;;;;;;;5061967;28;20033;-72
2022/03/23 09:27:48;;;;;;;18.30;12.32;;;;;;;;;;5059791;28;22428;-73
2022/03/23 09:30:15;;;;;;;21.08;11.25;;;;;;;;;;5055877;28;20389;-72
2022/03/23 09:32:43;;;;;;;18.42;10.60;;;;;;;;;;5056698;28;20036;-74
2022/03/23 09:35:09;;;;;;;15.90;9.95;;;;;;;;;;5061967;28;20067;-73
2022/03/23 09:37:48;;;;;;;18.67;10.07;;;;;;;;;;5062492;28;20035;-74
2022/03/23 09:40:19;;;;;;;14.05;9.70;;;;;;;;;;5061450;28;20136;-73
2022/03/23 09:42:46;;;;;;;17.23;9.80;;;;;;;;;;5066943;28;20517;-74
2022/03/23 09:45:19;;;;;;;18.10;9.60;;;;;;;;;;5067991;28;21364;-74
2022/03/23 09:47:45;;;;;;;15.07;10.82;;;;;;;;;;5073201;28;20032;-75
2022/03/23 09:50:11;;;;;;;19.13;9.95;;;;;;;;;;5073026;28;20032;-74
2022/03/23 09:52:38;;;;;;;18.60;10.13;;;;;;;;;;5070517;28;20029;-75
2022/03/23 09:55:05;;;;;;;13.57;9.73;;;;;;;;;;5068992;28;20172;-75
2022/03/23 09:57:31;;;;;;;15.02;9.75;;;;;;;;;;5073984;28;20049;-74
2022/03/23 09:59:57;;;;;;;19.67;10.05;;;;;;;;;;5075844;28;20032;-72
2022/03/23 10:02:41;;;;;;;16.23;9.20;;;;;;;;;;5068447;28;20583;-73
2022/03/23 10:05:26;;;;;;;16.70;9.10;;;;;;;;;;5064841;28;20393;-75
2022/03/23 10:08:11;;;;;;;12.65;8.35;;;;;;;;;;5060502;28;20060;-73
2022/03/23 10:10:56;;;;;;;16.30;8.75;;;;;;;;;;5057674;28;20040;-73
2022/03/23 10:13:40;;;;;;;18.45;10.02;;;;;;;;;;5064081;28;21674;-73
2022/03/23 10:16:06;;;;;;;12.45;10.00;;;;;;;;;;5063762;28;20036;-72
2022/03/23 10:18:51;;;;;;;14.80;9.38;;;;;;;;;;5069280;28;20043;-72
2022/03/23 10:21:18;;;;;;;19.43;8.53;;;;;;;;;;5065492;28;20028;-73
2022/03/23 10:24:10;;;;;;;12.88;8.50;;;;;;;;;;5061933;28;20287;-72
2022/03/23 10:26:38;;;;;;;12.98;8.88;;;;;;;;;;5045671;28;20052;-74
2022/03/23 10:29:05;;;;;;;13.93;9.75;;;;;;;;;;5066066;28;22254;-74
2022/03/23 10:31:32;;;;;;;14.82;8.40;;;;;;;;;;5062810;28;20032;-73
2022/03/23 10:33:59;;;;;;;13.98;8.73;;;;;;;;;;5060835;28;20024;-72
2022/03/23 10:36:28;;;;;;;12.60;8.65;;;;;;;;;;5058535;28;20025;-72
2022/03/23 10:39:00;;;;;;;11.85;7.70;;;;;;;;;;5071582;28;20021;-71
2022/03/23 10:41:27;;;;;;;14.10;8.30;;;;;;;;;;5061533;28;20097;-73
2022/03/23 10:43:53;;;;;;;11.18;8.05;;;;;;;;;;5060305;28;20447;-71
2022/03/23 10:46:20;;;;;;;15.85;8.70;;;;;;;;;;5072420;28;20028;-72
2022/03/23 10:49:01;;;;;;;14.50;8.63;;;;;;;;;;5061039;28;20028;-73
2022/03/23 10:51:32;;;;;;;13.23;7.95;;;;;;;;;;5066653;28;20025;-73
2022/03/23 10:53:58;;;;;;;12.65;7.93;;;;;;;;;;5059782;28;20036;-74
2022/03/23 10:56:43;;;;;;;11.77;8.40;;;;;;;;;;5056047;28;20031;-73
2022/03/23 10:59:21;;;;;;;9.40;7.50;;;;;;;;;;5057479;28;20024;-74
2022/03/23 11:02:07;;;;;;;16.23;7.85;;;;;;;;;;5060747;28;20083;-73
2022/03/23 11:04:42;;;;;;;12.32;7.55;;;;;;;;;;5070561;28;20074;-73
2022/03/23 11:07:22;;;;;;;11.90;7.75;;;;;;;;;;5078803;28;20039;-73
2022/03/23 11:18:08;;;;;;;9.70;6.50;;;;;;;;;;5061545;28;20712;-72
2022/03/23 11:20:46;;;;;;;9.10;5.82;;;;;;;;;;5062706;28;20025;-72
2022/03/23 11:23:17;;;;;;;7.95;5.15;;;;;;;;;;5063349;28;20034;-72
2022/03/23 11:25:43;;;;;;;6.95;5.65;;;;;;;;;;5059576;28;20029;-74
2022/03/23 11:28:10;;;;;;;10.45;5.80;;;;;;;;;;5058204;28;20032;-71
2022/03/23 11:30:37;;;;;;;7.60;4.50;;;;;;;;;;5066547;28;21326;-74
2022/03/23 11:33:04;;;;;;;5.82;4.28;;;;;;;;;;5061832;28;20513;-72
2022/03/23 11:35:31;;;;;;;5.68;4.35;;;;;;;;;;5065685;28;20482;-74
2022/03/23 11:37:57;;;;;;;10.85;5.47;;;;;;;;;;5066834;28;20055;-73
2022/03/23 11:40:23;;;;;;;6.78;4.18;;;;;;;;;;5073550;28;20033;-73
2022/03/23 11:42:49;;;;;;;7.72;4.00;;;;;;;;;;5073137;28;20029;-74
2022/03/23 11:45:16;;;;;;;5.88;3.95;;;;;;;;;;5075176;28;20059;-73
2022/03/23 11:47:51;;;;;;;7.70;3.70;;;;;;;;;;5062315;28;20527;-74
2022/03/23 11:50:17;;;;;;;8.07;4.25;;;;;;;;;;5062645;28;20062;-73
2022/03/23 11:52:47;;;;;;;8.05;5.28;;;;;;;;;;5073887;28;20110;-72
2022/03/23 11:55:37;;;;;;;5.78;4.30;;;;;;;;;;5062423;28;20551;-74
2022/03/23 11:58:18;;;;;;;8.55;4.68;;;;;;;;;;5065123;28;20027;-74
2022/03/23 12:00:55;;;;;;;6.18;4.40;;;;;;;;;;5078295;28;20032;-72
2022/03/23 12:03:40;;;;;;;7.65;4.93;;;;;;;;;;5073841;28;20020;-74
2022/03/23 12:06:14;;;;;;;5.32;4.28;;;;;;;;;;5074481;28;20047;-72
2022/03/23 12:08:59;;;;;;;5.93;5.18;;;;;;;;;;5074404;28;20079;-74
2022/03/23 12:11:41;;;;;;;7.40;4.90;;;;;;;;;;5076711;28;20119;-72
2022/03/23 12:14:27;;;;;;;6.28;4.90;;;;;;;;;;5071638;28;20132;-75
2022/03/23 12:16:57;;;;;;;6.93;4.95;;;;;;;;;;5072925;28;21145;-74
2022/03/23 12:19:24;;;;;;;7.72;5.32;;;;;;;;;;5067111;28;20027;-74
2022/03/23 12:21:56;;;;;;;10.65;5.57;;;;;;;;;;5061475;28;20163;-74
2022/03/23 12:24:35;;;;;;;10.35;4.88;;;;;;;;;;5064780;28;20028;-74
2022/03/23 12:27:08;;;;;;;10.40;5.20;;;;;;;;;;5065860;28;20020;-73
2022/03/23 12:29:37;;;;;;;6.90;5.68;;;;;;;;;;5071070;28;20092;-74
2022/03/23 12:32:06;;;;;;;9.13;5.55;;;;;;;;;;5062900;28;20549;-76
2022/03/23 12:34:32;;;;;;;8.25;5.57;;;;;;;;;;5061560;28;20028;-74
2022/03/23 12:37:11;;;;;;;9.00;6.00;;;;;;;;;;5061318;28;20421;-75
2022/03/23 12:39:38;;;;;;;8.57;4.78;;;;;;;;;;5060642;28;20016;-75
2022/03/23 12:42:16;;;;;;;6.68;4.70;;;;;;;;;;5064177;28;20120;-74
2022/03/23 12:44:50;;;;;;;5.43;4.18;;;;;;;;;;5059784;28;20117;-74
2022/03/23 12:47:20;;;;;;;7.55;4.25;;;;;;;;;;5060892;28;20317;-74
2022/03/23 12:58:11;;;;;;;5.22;4.13;;;;;;;;;;5057036;28;20097;-73
2022/03/23 13:00:41;;;;;;;6.95;4.50;;;;;;;;;;5059453;28;20039;-74
2022/03/23 13:03:07;;;;;;;5.28;4.03;;;;;;;;;;5052610;28;20034;-75
2022/03/23 13:05:34;;;;;;;6.07;4.70;;;;;;;;;;5061542;28;20029;-73
2022/03/23 13:08:00;;;;;;;5.43;3.88;;;;;;;;;;5065543;28;20139;-74
2022/03/23 13:10:26;;;;;;;5.05;4.00;;;;;;;;;;5073965;28;20135;-74
2022/03/23 13:13:08;;;;;;;5.78;4.15;;;;;;;;;;5077239;28;20056;-73
2022/03/23 13:15:35;;;;;;;7.80;4.63;;;;;;;;;;5068167;28;20130;-73
2022/03/23 13:18:01;;;;;;;6.53;4.35;;;;;;;;;;5062368;28;20486;-73
2022/03/23 13:20:28;;;;;;;6.20;4.65;;;;;;;;;;5064681;28;20032;-73
2022/03/23 13:22:55;;;;;;;6.63;4.47;;;;;;;;;;5064209;28;20032;-72
2022/03/23 13:25:21;;;;;;;6.47;4.78;;;;;;;;;;5065237;28;20036;-74
2022/03/23 13:27:48;;;;;;;6.75;4.78;;;;;;;;;;5065871;28;20102;-73
2022/03/23 13:30:16;;;;;;;6.72;4.78;;;;;;;;;;5064690;28;20025;-73
2022/03/23 13:32:50;;;;;;;10.45;4.68;;;;;;;;;;5065812;28;20070;-73
2022/03/23 13:35:20;;;;;;;6.77;4.93;;;;;;;;;;5064068;28;20064;-71
2022/03/23 13:37:55;;;;;;;7.43;5.35;;;;;;;;;;5065698;28;20075;-73
2022/03/23 13:40:24;;;;;;;6.32;5.00;;;;;;;;;;5071574;28;20428;-74
2022/03/23 13:45:36;;;;;;;6.00;5.15;;;;;;;;;;5061908;28;20052;-73
2022/03/23 13:48:07;;;;;;;10.00;5.40;;;;;;;;;;5057105;28;20599;-76
2022/03/23 13:50:33;;;;;;;6.15;4.93;;;;;;;;;;5074915;28;20047;-72
2022/03/23 13:52:59;;;;;;;9.68;5.53;;;;;;;;;;5062914;28;20068;-73
2022/03/23 13:55:25;;;;;;;7.43;5.13;;;;;;;;;;5061966;28;20028;-74
2022/03/23 13:57:51;;;;;;;6.72;4.68;;;;;;;;;;5059334;28;20028;-72
2022/03/23 14:00:28;;;;;;;6.55;4.38;;;;;;;;;;5062003;28;20028;-72
2022/03/23 14:02:54;;;;;;;5.13;4.60;;;;;;;;;;5065628;28;20648;-73
2022/03/23 14:05:20;;;;;;;7.43;4.50;;;;;;;;;;5060221;28;20691;-74
2022/03/23 14:07:47;;;;;;;8.73;4.90;;;;;;;;;;5059510;28;20154;-73
2022/03/23 14:10:13;;;;;;;7.85;4.70;;;;;;;;;;5054531;28;20040;-75
2022/03/23 14:12:39;;;;;;;6.18;4.78;;;;;;;;;;5060776;28;20168;-74
2022/03/23 14:15:06;;;;;;;8.18;4.93;;;;;;;;;;5070391;28;20043;-74
2022/03/23 14:17:35;;;;;;;4.82;4.10;;;;;;;;;;5060613;28;20393;-74
2022/03/23 14:20:04;;;;;;;7.32;4.30;;;;;;;;;;5072645;28;20024;-74
2022/03/23 14:22:31;;;;;;;7.65;4.57;;;;;;;;;;5072774;28;20416;-74
2022/03/23 14:24:58;;;;;;;10.70;4.20;;;;;;;;;;5083422;28;20102;-75
2022/03/23 14:27:26;;;;;;;4.63;3.95;;;;;;;;;;5071878;28;20033;-75
2022/03/23 14:30:07;;;;;;;12.27;5.00;;;;;;;;;;5069197;28;20046;-73
2022/03/23 14:32:35;;;;;;;7.13;4.80;;;;;;;;;;5067724;28;20103;-74
2022/03/23 14:35:03;;;;;;;6.38;4.53;;;;;;;;;;5087622;28;20032;-75
2022/03/23 14:37:42;;;;;;;7.85;5.15;;;;;;;;;;5067074;28;20052;-73
2022/03/23 14:40:27;;;;;;;8.10;5.85;;;;;;;;;;5070894;28;20050;-73
2022/03/23 14:42:55;;;;;;;6.13;4.85;;;;;;;;;;5073697;28;20244;-73
2022/03/23 14:45:44;;;;;;;7.93;4.70;;;;;;;;;;5075886;28;20647;-73
2022/03/23 14:48:18;;;;;;;8.38;4.90;;;;;;;;;;5064508;28;20037;-74
2022/03/23 14:50:47;;;;;;;8.55;4.60;;;;;;;;;;5057469;28;20031;-73
2022/03/23 14:53:13;;;;;;;6.28;4.70;;;;;;;;;;5065793;28;20081;-73
2022/03/23 14:55:40;;;;;;;5.78;4.65;;;;;;;;;;5064496;28;20089;-73
2022/03/23 14:58:09;;;;;;;8.25;4.93;;;;;;;;;;5077346;28;20447;-74
2022/03/23 15:00:37;;;;;;;8.75;5.00;;;;;;;;;;5071007;28;20021;-73
2022/03/23 15:03:03;;;;;;;8.40;4.85;;;;;;;;;;5076482;28;20028;-73
2022/03/23 15:13:46;;;;;;;11.05;5.43;;;;;;;;;;5072724;28;20055;-73
2022/03/23 15:16:13;;;;;;;8.15;4.78;;;;;;;;;;5061561;28;20497;-74
2022/03/23 15:18:40;;;;;;;9.98;4.90;;;;;;;;;;5060960;28;20054;-72